createdAt,value
2019-04-26T00:01:35.927Z,1.10
2019-04-26T00:04:06.529Z,0.80
2019-04-26T00:06:37.355Z,1.00
2019-04-26T00:09:26.120Z,1.00
2019-04-26T00:12:30.899Z,0.70
2019-04-26T00:15:26.471Z,0.70
2019-04-26T00:17:59.128Z,0.90
2019-04-26T00:20:29.566Z,1.17
2019-04-26T00:23:00.050Z,0.90
2019-04-26T00:25:30.590Z,0.90
2019-04-26T00:28:01.329Z,0.77
2019-04-26T00:30:32.168Z,0.90
2019-04-26T00:33:02.673Z,0.90
2019-04-26T00:35:33.117Z,1.07
2019-04-26T00:38:03.968Z,0.80
2019-04-26T00:40:34.399Z,0.97
2019-04-26T00:43:04.832Z,1.20
2019-04-26T00:45:38.725Z,0.90
2019-04-26T00:48:12.560Z,0.87
2019-04-26T00:50:46.336Z,1.10
2019-04-26T00:53:18.252Z,1.17
2019-04-26T00:55:49.813Z,1.10
2019-04-26T00:58:22.281Z,1.10
2019-04-26T01:00:52.737Z,1.00
2019-04-26T01:03:23.164Z,1.30
2019-04-26T01:06:00.095Z,0.90
2019-04-26T01:08:28.059Z,1.00
2019-04-26T01:10:58.527Z,1.17
2019-04-26T01:13:29.290Z,0.97
2019-04-26T01:15:59.716Z,1.40
2019-04-26T01:18:30.143Z,1.03
2019-04-26T01:21:03.650Z,1.10
2019-04-26T01:23:36.984Z,1.00
2019-04-26T01:26:12.468Z,1.20
2019-04-26T01:28:57.392Z,1.00
2019-04-26T01:31:31.500Z,0.90
2019-04-26T01:34:02.646Z,0.80
2019-04-26T01:36:34.277Z,1.13
2019-04-26T01:39:16.989Z,1.40
2019-04-26T01:41:59.380Z,1.10
2019-04-26T01:44:48.339Z,1.03
2019-04-26T01:47:20.766Z,1.10
2019-04-26T01:49:51.937Z,1.10
2019-04-26T01:52:23.991Z,1.03
2019-04-26T01:54:55.855Z,1.07
2019-04-26T01:57:29.454Z,1.10
2019-04-26T02:00:08.206Z,0.90
2019-04-26T02:02:55.941Z,0.90
2019-04-26T02:05:27.980Z,1.10
2019-04-26T02:07:59.337Z,1.57
2019-04-26T02:10:30.737Z,1.00
2019-04-26T02:13:01.711Z,1.10
2019-04-26T02:15:33.636Z,1.10
2019-04-26T02:18:05.582Z,1.10
2019-04-26T02:21:29.898Z,1.13
2019-04-26T02:24:26.408Z,1.20
2019-04-26T02:26:58.456Z,1.20
2019-04-26T02:29:28.988Z,1.37
2019-04-26T02:32:04.271Z,1.03
2019-04-26T02:34:37.806Z,1.40
2019-04-26T02:37:11.159Z,1.30
2019-04-26T02:39:42.952Z,1.00
2019-04-26T02:42:32.280Z,1.20
2019-04-26T02:45:31.893Z,1.30
2019-04-26T02:48:29.058Z,1.27
2019-04-26T02:51:05.168Z,1.30
2019-04-26T02:54:11.501Z,1.07
2019-04-26T02:56:43.169Z,1.33
2019-04-26T02:59:38.182Z,1.40
2019-04-26T03:02:16.498Z,1.20
2019-04-26T03:04:49.902Z,1.40
2019-04-26T03:07:27.438Z,1.40
2019-04-26T03:10:00.617Z,1.83
2019-04-26T03:12:35.742Z,1.20
2019-04-26T03:15:19.164Z,1.20
2019-04-26T03:18:20.121Z,1.47
2019-04-26T03:20:54.956Z,1.33
2019-04-26T03:23:53.209Z,1.30
2019-04-26T03:26:33.709Z,1.33
2019-04-26T03:29:37.432Z,1.70
2019-04-26T03:32:50.650Z,1.60
2019-04-26T03:35:36.923Z,1.37
2019-04-26T03:38:21.573Z,1.33
2019-04-26T03:41:02.316Z,1.60
2019-04-26T03:43:48.315Z,1.30
2019-04-26T03:46:45.337Z,1.43
2019-04-26T03:50:10.108Z,1.70
2019-04-26T03:53:10.685Z,2.00
2019-04-26T03:56:20.210Z,1.60
2019-04-26T03:59:38.885Z,1.37
2019-04-26T04:02:20.694Z,1.53
2019-04-26T04:05:04.773Z,1.90
2019-04-26T04:07:43.918Z,1.67
2019-04-26T04:10:15.756Z,1.47
2019-04-26T04:13:44.411Z,1.70
2019-04-26T04:16:46.653Z,1.60
2019-04-26T04:20:06.629Z,1.67
2019-04-26T04:22:45.381Z,1.60
2019-04-26T04:25:25.128Z,1.90
2019-04-26T04:28:06.563Z,1.50
2019-04-26T04:31:07.332Z,1.60
2019-04-26T04:34:19.369Z,1.90
2019-04-26T04:36:53.637Z,1.70
2019-04-26T04:39:59.832Z,1.60
2019-04-26T04:42:47.920Z,1.80
2019-04-26T04:46:15.716Z,1.50
2019-04-26T04:49:09.490Z,1.60
2019-04-26T04:52:03.804Z,1.60
2019-04-26T04:54:54.806Z,1.77
2019-04-26T04:57:48.158Z,1.67
2019-04-26T05:01:18.713Z,1.90
2019-04-26T05:03:57.655Z,1.70
2019-04-26T05:06:54.852Z,1.87
2019-04-26T05:09:37.141Z,1.73
2019-04-26T05:12:31.985Z,1.80
2019-04-26T05:15:44.550Z,1.77
2019-04-26T05:19:03.108Z,1.77
2019-04-26T05:21:49.652Z,2.20
2019-04-26T05:24:38.247Z,2.10
2019-04-26T05:27:55.672Z,2.03
2019-04-26T05:31:15.089Z,2.00
2019-04-26T05:34:24.026Z,2.00
2019-04-26T05:37:23.589Z,2.53
2019-04-26T05:40:28.096Z,2.40
2019-04-26T05:43:52.404Z,3.00
2019-04-26T05:47:16.122Z,3.33
2019-04-26T05:50:55.761Z,3.33
2019-04-26T05:54:33.861Z,3.10
2019-04-26T05:57:16.572Z,3.10
2019-04-26T06:00:04.001Z,3.27
2019-04-26T06:03:08.792Z,3.00
2019-04-26T06:06:07.816Z,3.60
2019-04-26T06:09:29.475Z,3.60
2019-04-26T06:12:17.049Z,3.80
2019-04-26T06:15:24.310Z,4.10
2019-04-26T06:18:16.091Z,4.77
2019-04-26T06:20:52.896Z,5.03
2019-04-26T06:24:22.614Z,5.27
2019-04-26T06:27:25.899Z,5.30
2019-04-26T06:30:27.440Z,5.50
2019-04-26T06:33:07.037Z,4.90
2019-04-26T06:35:42.111Z,5.13
2019-04-26T06:39:11.996Z,4.67
2019-04-26T06:42:05.229Z,5.10
2019-04-26T06:45:07.318Z,5.63
2019-04-26T06:47:51.605Z,5.97
2019-04-26T06:50:35.789Z,5.57
2019-04-26T06:53:13.888Z,5.67
2019-04-26T06:55:54.460Z,5.47
2019-04-26T06:59:20.421Z,5.60
2019-04-26T07:01:59.158Z,6.10
2019-04-26T07:05:01.117Z,5.80
2019-04-26T07:08:18.374Z,5.93
2019-04-26T07:12:00.804Z,6.93
2019-04-26T07:14:59.470Z,5.57
2019-04-26T07:18:10.808Z,6.13
2019-04-26T07:20:56.024Z,6.60
2019-04-26T07:24:16.886Z,7.00
2019-04-26T07:27:14.676Z,6.53
2019-04-26T07:30:28.168Z,6.97
2019-04-26T07:33:35.494Z,7.20
2019-04-26T07:36:35.100Z,6.73
2019-04-26T07:39:23.755Z,6.30
2019-04-26T07:42:49.958Z,5.80
2019-04-26T07:45:52.769Z,6.30
2019-04-26T07:48:54.956Z,6.00
2019-04-26T07:52:15.851Z,6.33
2019-04-26T07:55:35.361Z,5.70
2019-04-26T07:58:42.247Z,5.60
2019-04-26T08:02:07.136Z,6.23
2019-04-26T08:04:42.724Z,6.80
2019-04-26T08:07:23.154Z,6.23
2019-04-26T08:10:10.032Z,6.20
2019-04-26T08:12:43.608Z,5.53
2019-04-26T08:15:39.387Z,5.20
2019-04-26T08:18:25.977Z,5.53
2019-04-26T08:21:18.397Z,5.57
2019-04-26T08:23:59.212Z,5.43
2019-04-26T08:26:33.136Z,5.60
2019-04-26T08:29:06.683Z,5.67
2019-04-26T08:31:40.719Z,5.50
2019-04-26T08:34:16.677Z,5.60
2019-04-26T08:36:57.222Z,6.50
2019-04-26T08:39:44.522Z,5.97
2019-04-26T08:42:12.100Z,6.80
2019-04-26T08:44:56.834Z,6.07
2019-04-26T08:47:39.432Z,6.70
2019-04-26T08:50:17.738Z,5.43
2019-04-26T08:52:51.415Z,4.97
2019-04-26T08:55:22.940Z,5.20
2019-04-26T08:57:56.280Z,4.63
2019-04-26T09:00:54.586Z,5.33
2019-04-26T09:03:40.761Z,5.30
2019-04-26T09:06:20.292Z,5.33
2019-04-26T09:08:53.559Z,5.80
2019-04-26T09:11:33.513Z,5.00
2019-04-26T09:14:00.920Z,5.10
2019-04-26T09:16:31.829Z,5.33
2019-04-26T09:19:02.651Z,6.13
2019-04-26T09:21:47.395Z,4.97
2019-04-26T09:24:41.169Z,5.40
2019-04-26T09:27:22.496Z,4.90
2019-04-26T09:30:05.152Z,4.60
2019-04-26T09:32:48.713Z,5.00
2019-04-26T09:35:19.202Z,5.20
2019-04-26T09:37:49.698Z,5.07
2019-04-26T09:40:22.680Z,5.10
2019-04-26T09:43:17.739Z,5.00
2019-04-26T09:46:10.452Z,5.17
2019-04-26T09:49:07.093Z,5.63
2019-04-26T09:51:39.084Z,5.40
2019-04-26T09:54:08.748Z,5.27
2019-04-26T09:56:39.561Z,5.63
2019-04-26T09:59:10.373Z,5.87
2019-04-26T10:01:40.855Z,6.03
2019-04-26T10:04:12.039Z,5.70
2019-04-26T10:06:42.776Z,5.63
2019-04-26T10:09:21.282Z,5.77
2019-04-26T10:11:54.896Z,5.87
2019-04-26T10:14:48.035Z,6.37
2019-04-26T10:17:22.648Z,5.83
2019-04-26T10:19:55.349Z,7.03
2019-04-26T10:22:27.659Z,6.47
2019-04-26T10:25:02.407Z,6.17
2019-04-26T10:27:32.462Z,6.63
2019-04-26T10:30:08.989Z,6.90
2019-04-26T10:32:35.598Z,7.37
2019-04-26T10:35:06.200Z,7.13
2019-04-26T10:37:39.564Z,7.63
2019-04-26T10:40:09.636Z,8.10
2019-04-26T10:42:40.973Z,7.27
2019-04-26T10:45:14.694Z,8.00
2019-04-26T10:47:45.528Z,7.83
2019-04-26T10:50:16.911Z,8.00
2019-04-26T10:52:54.276Z,7.63
2019-04-26T10:55:58.810Z,8.20
2019-04-26T10:58:42.952Z,7.77
2019-04-26T11:01:15.529Z,7.23
2019-04-26T11:03:45.961Z,7.57
2019-04-26T11:06:16.882Z,7.83
2019-04-26T11:08:47.704Z,7.53
2019-04-26T11:11:18.300Z,7.03
2019-04-26T11:13:49.176Z,7.13
2019-04-26T11:16:19.612Z,7.60
2019-04-26T11:18:50.858Z,7.30
2019-04-26T11:21:22.491Z,7.20
2019-04-26T11:23:52.994Z,7.23
2019-04-26T11:26:23.491Z,7.27
2019-04-26T11:28:55.825Z,7.27
2019-04-26T11:31:27.668Z,6.50
2019-04-26T11:34:05.143Z,6.07
2019-04-26T11:36:31.481Z,6.00
2019-04-26T11:39:05.448Z,5.57
2019-04-26T11:41:37.253Z,6.10
2019-04-26T11:44:06.269Z,5.87
2019-04-26T11:46:44.659Z,5.07
2019-04-26T11:49:10.068Z,4.90
2019-04-26T11:51:40.890Z,5.47
2019-04-26T11:54:11.637Z,4.40
2019-04-26T11:56:42.483Z,5.37
2019-04-26T11:59:13.154Z,5.07
2019-04-26T12:01:43.598Z,3.83
2019-04-26T12:04:32.001Z,4.20
2019-04-26T12:07:12.203Z,4.47
2019-04-26T12:09:47.174Z,4.10
2019-04-26T12:12:17.611Z,3.60
2019-04-26T12:14:48.444Z,3.43
2019-04-26T12:17:19.014Z,3.93
2019-04-26T12:19:52.293Z,3.13
2019-04-26T12:22:22.505Z,2.70
2019-04-26T12:24:53.000Z,2.60
2019-04-26T12:27:26.632Z,2.90
2019-04-26T12:29:55.840Z,3.20
2019-04-26T12:32:26.320Z,3.40
2019-04-26T12:34:57.105Z,3.00
2019-04-26T12:37:27.971Z,3.37
2019-04-26T12:39:58.726Z,3.30
2019-04-26T12:42:29.450Z,2.80
2019-04-26T12:45:19.886Z,3.20
2019-04-26T12:47:53.240Z,2.77
2019-04-26T12:50:23.685Z,2.93
2019-04-26T12:52:55.826Z,2.83
2019-04-26T12:55:26.537Z,2.70
2019-04-26T12:57:57.740Z,2.70
2019-04-26T13:00:33.056Z,2.60
2019-04-26T13:03:03.800Z,2.77
2019-04-26T13:05:34.241Z,2.43
2019-04-26T13:08:04.733Z,2.43
2019-04-26T13:10:54.476Z,2.40
2019-04-26T13:13:28.940Z,2.50
2019-04-26T13:16:12.125Z,2.30
2019-04-26T13:18:45.207Z,2.40
2019-04-26T13:21:14.815Z,2.40
2019-04-26T13:23:48.001Z,2.30
2019-04-26T13:26:17.643Z,2.30
2019-04-26T13:28:52.418Z,2.50
2019-04-26T13:31:20.984Z,2.50
2019-04-26T13:33:51.473Z,2.53
2019-04-26T13:36:25.269Z,2.50
2019-04-26T13:38:55.596Z,2.03
2019-04-26T13:41:27.981Z,2.53
2019-04-26T13:44:00.941Z,3.00
2019-04-26T13:46:49.332Z,2.90
2019-04-26T13:49:36.596Z,2.77
2019-04-26T13:52:07.521Z,2.67
2019-04-26T13:54:37.976Z,2.87
2019-04-26T13:57:10.079Z,3.07
2019-04-26T13:59:41.026Z,2.83
2019-04-26T14:02:12.218Z,2.83
2019-04-26T14:04:42.799Z,2.90
2019-04-26T14:07:13.264Z,3.10
2019-04-26T14:09:43.691Z,2.87
2019-04-26T14:12:18.824Z,3.10
2019-04-26T14:14:46.728Z,2.80
2019-04-26T14:17:17.607Z,2.70
2019-04-26T14:19:49.587Z,3.00
2019-04-26T14:22:22.097Z,2.63
2019-04-26T14:24:58.650Z,2.70
2019-04-26T14:27:33.219Z,3.00
2019-04-26T14:30:06.423Z,2.80
2019-04-26T14:32:35.995Z,2.50
2019-04-26T14:35:06.722Z,2.90
2019-04-26T14:37:37.209Z,3.00
2019-04-26T14:40:16.607Z,2.43
2019-04-26T14:42:45.984Z,2.27
2019-04-26T14:45:22.723Z,2.07
2019-04-26T14:47:47.550Z,2.20
2019-04-26T14:50:17.012Z,2.20
2019-04-26T14:52:47.432Z,2.33
2019-04-26T14:55:21.206Z,2.23
2019-04-26T14:57:53.814Z,2.10
2019-04-26T15:00:29.426Z,1.77
2019-04-26T15:03:12.252Z,2.00
2019-04-26T15:05:55.610Z,2.10
2019-04-26T15:08:26.361Z,2.00
2019-04-26T15:11:01.002Z,1.77
2019-04-26T15:13:29.348Z,2.10
2019-04-26T15:16:04.025Z,2.00
2019-04-26T15:18:33.844Z,1.90
2019-04-26T15:21:04.616Z,2.07
2019-04-26T15:23:36.626Z,1.90
2019-04-26T15:26:07.158Z,1.57
2019-04-26T15:28:38.000Z,1.80
2019-04-26T15:31:08.454Z,1.80
2019-04-26T15:33:44.191Z,1.80
2019-04-26T15:36:14.524Z,1.90
2019-04-26T15:38:45.618Z,1.80
2019-04-26T15:41:37.429Z,1.60
2019-04-26T15:44:28.324Z,1.60
2019-04-26T15:47:21.170Z,2.07
2019-04-26T15:49:56.328Z,2.40
2019-04-26T15:52:30.175Z,1.97
2019-04-26T15:55:04.088Z,2.00
2019-04-26T15:57:34.698Z,3.07
2019-04-26T16:00:06.206Z,2.77
2019-04-26T16:02:36.951Z,2.70
2019-04-26T16:05:09.871Z,2.90
2019-04-26T16:07:42.895Z,3.10
2019-04-26T16:10:13.613Z,3.00
2019-04-26T16:12:44.401Z,3.77
2019-04-26T16:15:14.973Z,3.70
2019-04-26T16:17:46.728Z,4.00
2019-04-26T16:20:17.165Z,3.77
2019-04-26T16:22:49.255Z,4.03
2019-04-26T16:25:20.128Z,4.00
2019-04-26T16:28:12.577Z,4.27
2019-04-26T16:30:53.185Z,4.13
2019-04-26T16:33:28.408Z,4.43
2019-04-26T16:36:02.624Z,5.07
2019-04-26T16:38:36.041Z,4.50
2019-04-26T16:41:07.066Z,4.20
2019-04-26T16:43:40.494Z,5.27
2019-04-26T16:46:14.716Z,6.00
2019-04-26T16:48:42.564Z,6.00
2019-04-26T16:51:14.485Z,6.07
2019-04-26T16:54:03.653Z,6.60
2019-04-26T16:56:25.947Z,5.50
2019-04-26T16:58:53.695Z,7.73
2019-04-26T17:01:23.605Z,7.60
2019-04-26T17:03:54.217Z,8.77
2019-04-26T17:06:25.031Z,8.03
2019-04-26T17:09:01.248Z,9.43
2019-04-26T17:11:30.277Z,6.90
2019-04-26T17:14:04.329Z,7.97
2019-04-26T17:16:34.769Z,7.87
2019-04-26T17:19:05.611Z,8.00
2019-04-26T17:21:43.050Z,7.23
2019-04-26T17:24:38.093Z,7.80
2019-04-26T17:27:12.966Z,8.10
2019-04-26T17:29:43.505Z,8.90
2019-04-26T17:32:17.359Z,8.03
2019-04-26T17:34:46.979Z,9.13
2019-04-26T17:37:17.779Z,8.97
2019-04-26T17:39:52.125Z,9.03
2019-04-26T17:42:25.121Z,9.63
2019-04-26T17:44:57.646Z,9.90
2019-04-26T17:47:32.176Z,7.73
2019-04-26T17:50:02.747Z,8.57
2019-04-26T17:52:35.994Z,9.97
2019-04-26T17:55:07.872Z,9.50
2019-04-26T17:57:43.471Z,10.97
2019-04-26T18:00:15.452Z,10.23
2019-04-26T18:02:48.151Z,10.40
2019-04-26T18:05:19.043Z,9.90
2019-04-26T18:07:57.953Z,9.90
2019-04-26T18:10:22.969Z,8.60
2019-04-26T18:12:54.261Z,8.90
2019-04-26T18:15:24.698Z,8.60
2019-04-26T18:18:25.138Z,9.43
2019-04-26T18:21:07.141Z,9.57
2019-04-26T18:23:39.702Z,9.97
2019-04-26T18:26:11.417Z,9.27
2019-04-26T18:28:46.278Z,10.20
2019-04-26T18:31:17.977Z,11.57
2019-04-26T18:33:48.175Z,12.37
2019-04-26T18:36:19.024Z,10.37
2019-04-26T18:38:50.656Z,10.53
2019-04-26T18:41:28.809Z,11.37
2019-04-26T18:44:00.968Z,13.53
2019-04-26T18:46:40.473Z,12.27
2019-04-26T18:49:11.459Z,12.93
2019-04-26T18:51:48.267Z,12.43
2019-04-26T18:54:36.230Z,11.30
2019-04-26T18:57:09.557Z,11.60
2019-04-26T18:59:44.778Z,12.63
2019-04-26T19:02:18.714Z,10.17
2019-04-26T19:04:49.660Z,10.87
2019-04-26T19:07:31.333Z,11.67
2019-04-26T19:09:59.540Z,12.80
2019-04-26T19:12:27.287Z,14.30
2019-04-26T19:15:11.475Z,11.30
2019-04-26T19:18:00.219Z,14.10
2019-04-26T19:20:44.422Z,14.53
2019-04-26T19:23:15.653Z,15.50
2019-04-26T19:25:46.712Z,16.07
2019-04-26T19:28:17.526Z,15.97
2019-04-26T19:30:50.985Z,17.03
2019-04-26T19:33:21.679Z,17.20
2019-04-26T19:35:53.638Z,14.60
2019-04-26T19:38:24.079Z,16.93
2019-04-26T19:40:54.542Z,18.00
2019-04-26T19:43:31.072Z,18.87
2019-04-26T19:46:34.524Z,16.60
2019-04-26T19:49:33.391Z,16.17
2019-04-26T19:52:12.682Z,15.87
2019-04-26T19:54:56.676Z,14.97
2019-04-26T19:57:39.030Z,15.27
2019-04-26T20:00:09.371Z,17.10
2019-04-26T20:02:41.923Z,16.57
2019-04-26T20:05:17.417Z,15.40
2019-04-26T20:07:49.295Z,15.90
2019-04-26T20:10:20.666Z,16.90
2019-04-26T20:12:52.742Z,16.47
2019-04-26T20:15:26.751Z,13.77
2019-04-26T20:17:59.646Z,13.77
2019-04-26T20:20:34.515Z,14.20
2019-04-26T20:23:05.902Z,15.13
2019-04-26T20:25:35.309Z,16.50
2019-04-26T20:28:06.256Z,16.43
2019-04-26T20:30:57.456Z,17.50
2019-04-26T20:33:31.081Z,18.50
2019-04-26T20:36:03.355Z,19.60
2019-04-26T20:38:35.865Z,16.27
2019-04-26T20:41:05.090Z,19.73
2019-04-26T20:43:36.814Z,18.50
2019-04-26T20:46:14.501Z,22.00
2019-04-26T20:48:42.634Z,17.13
2019-04-26T20:51:13.203Z,20.20
2019-04-26T20:53:45.934Z,16.97
2019-04-26T20:56:18.775Z,20.20
2019-04-26T20:58:49.181Z,22.67
2019-04-26T21:01:20.178Z,17.87
2019-04-26T21:03:51.751Z,19.73
2019-04-26T21:06:22.376Z,19.87
2019-04-26T21:08:54.100Z,22.13
2019-04-26T21:11:24.975Z,22.57
2019-04-26T21:13:56.088Z,23.07
2019-04-26T21:16:28.411Z,16.87
2019-04-26T21:18:59.275Z,22.87
2019-04-26T21:21:32.009Z,24.33
2019-04-26T21:24:05.513Z,24.90
2019-04-26T21:26:54.567Z,23.37
2019-04-26T21:29:52.508Z,26.17
2019-04-26T21:32:30.777Z,25.43
2019-04-26T21:35:03.621Z,26.10
2019-04-26T21:37:58.429Z,20.50
2019-04-26T21:41:04.404Z,25.97
2019-04-26T21:43:34.812Z,27.37
2019-04-26T21:46:08.488Z,22.47
2019-04-26T21:48:41.890Z,22.90
2019-04-26T21:51:14.469Z,23.10
2019-04-26T21:53:45.136Z,19.27
2019-04-26T21:56:16.553Z,21.63
2019-04-26T21:58:47.009Z,22.90
2019-04-26T22:01:21.037Z,20.40
2019-04-26T22:03:55.322Z,22.03
2019-04-26T22:06:28.281Z,20.67
2019-04-26T22:09:13.901Z,23.07
2019-04-26T22:11:44.807Z,20.73
2019-04-26T22:14:23.492Z,22.27
2019-04-26T22:17:15.704Z,22.23
2019-04-26T22:20:16.862Z,21.27
2019-04-26T22:23:11.702Z,21.77
2019-04-26T22:25:43.850Z,25.10
2019-04-26T22:28:14.726Z,27.07
2019-04-26T22:30:45.248Z,25.33
2019-04-26T22:33:15.731Z,27.23
2019-04-26T22:35:50.571Z,27.83
2019-04-26T22:38:23.698Z,28.60
2019-04-26T22:40:53.256Z,26.67
2019-04-26T22:43:53.895Z,25.27
2019-04-26T22:46:47.234Z,27.87
2019-04-26T22:49:17.034Z,31.03
2019-04-26T22:51:47.950Z,33.17
2019-04-26T22:54:18.447Z,28.37
2019-04-26T22:56:48.919Z,32.80
2019-04-26T22:59:19.388Z,27.60
2019-04-26T23:01:49.886Z,26.03
2019-04-26T23:04:23.536Z,30.50
2019-04-26T23:06:56.202Z,31.17
2019-04-26T23:09:25.980Z,30.30
2019-04-26T23:12:03.786Z,28.33
2019-04-26T23:14:59.716Z,30.23
2019-04-26T23:18:03.605Z,30.33
2019-04-26T23:20:38.000Z,33.10
2019-04-26T23:23:08.816Z,25.17
2019-04-26T23:25:39.724Z,23.87
2019-04-26T23:28:10.667Z,28.20
2019-04-26T23:30:42.518Z,30.77
2019-04-26T23:33:15.143Z,30.13
2019-04-26T23:35:47.685Z,28.83
2019-04-26T23:38:18.216Z,28.53
2019-04-26T23:40:48.677Z,27.73
2019-04-26T23:43:24.097Z,24.83
2019-04-26T23:45:53.063Z,25.70
2019-04-26T23:48:24.631Z,29.33
2019-04-26T23:50:55.070Z,23.77
2019-04-26T23:53:25.817Z,27.83
2019-04-26T23:55:57.375Z,23.93
2019-04-26T23:58:28.211Z,23.53
